sensor_id;sensor_type;location;lat;lon;timestamp;temperature;humidity
19000;DHT22;9633;50.980;13.850;2023-12-07T00:00:23;0.90;99.90
19000;DHT22;9633;50.980;13.850;2023-12-07T00:01:55;0.80;99.90
19000;DHT22;9633;50.980;13.850;2023-12-07T00:03:29;0.90;99.90
19000;DHT22;9633;50.980;13.850;2023-12-07T00:05:01;0.90;99.90
19000;DHT22;9633;50.980;13.850;2023-12-07T00:06:35;0.90;99.90
19000;DHT22;9633;50.980;13.850;2023-12-07T00:08:09;0.90;99.90
19000;DHT22;9633;50.980;13.850;2023-12-07T00:09:42;0.90;99.90
19000;DHT22;9633;50.980;13.850;2023-12-07T00:11:14;0.90;99.90
19000;DHT22;9633;50.980;13.850;2023-12-07T00:12:48;0.90;99.90
19000;DHT22;9633;50.980;13.850;2023-12-07T00:14:20;0.90;99.90
19000;DHT22;9633;50.980;13.850;2023-12-07T00:15:54;0.90;99.90
19000;DHT22;9633;50.980;13.850;2023-12-07T00:17:28;0.80;99.90
19000;DHT22;9633;50.980;13.850;2023-12-07T00:19:00;0.80;99.90
19000;DHT22;9633;50.980;13.850;2023-12-07T00:20:33;0.80;99.90
19000;DHT22;9633;50.980;13.850;2023-12-07T00:22:05;0.80;99.90
19000;DHT22;9633;50.980;13.850;2023-12-07T00:23:38;0.80;99.90
19000;DHT22;9633;50.980;13.850;2023-12-07T00:25:11;0.80;99.90
19000;DHT22;9633;50.980;13.850;2023-12-07T00:26:44;0.80;99.90
19000;DHT22;9633;50.980;13.850;2023-12-07T00:28:16;0.80;99.90
19000;DHT22;9633;50.980;13.850;2023-12-07T00:29:49;0.80;99.90
19000;DHT22;9633;50.980;13.850;2023-12-07T00:31:23;0.80;99.90
19000;DHT22;9633;50.980;13.850;2023-12-07T00:32:56;0.80;99.90
19000;DHT22;9633;50.980;13.850;2023-12-07T00:34:28;0.80;99.90
19000;DHT22;9633;50.980;13.850;2023-12-07T00:36:02;0.80;99.90
19000;DHT22;9633;50.980;13.850;2023-12-07T00:37:35;0.80;99.90
19000;DHT22;9633;50.980;13.850;2023-12-07T00:39:08;0.90;99.90
19000;DHT22;9633;50.980;13.850;2023-12-07T00:40:42;0.90;99.90
19000;DHT22;9633;50.980;13.850;2023-12-07T00:42:14;0.90;99.90
19000;DHT22;9633;50.980;13.850;2023-12-07T00:43:47;0.90;99.90
19000;DHT22;9633;50.980;13.850;2023-12-07T00:45:19;0.90;99.90
19000;DHT22;9633;50.980;13.850;2023-12-07T00:46:54;0.90;99.90
19000;DHT22;9633;50.980;13.850;2023-12-07T00:48:26;0.90;99.90
19000;DHT22;9633;50.980;13.850;2023-12-07T00:49:59;0.90;99.90
19000;DHT22;9633;50.980;13.850;2023-12-07T00:51:32;0.90;99.90
19000;DHT22;9633;50.980;13.850;2023-12-07T00:53:05;0.90;99.90
19000;DHT22;9633;50.980;13.850;2023-12-07T00:54:38;0.90;99.90
19000;DHT22;9633;50.980;13.850;2023-12-07T00:56:11;0.90;99.90
19000;DHT22;9633;50.980;13.850;2023-12-07T00:57:44;0.90;99.90
19000;DHT22;9633;50.980;13.850;2023-12-07T00:59:16;0.90;99.90
19000;DHT22;9633;50.980;13.850;2023-12-07T01:00:49;0.90;99.90
19000;DHT22;9633;50.980;13.850;2023-12-07T01:02:23;0.90;99.90
19000;DHT22;9633;50.980;13.850;2023-12-07T01:03:57;1.00;99.90
19000;DHT22;9633;50.980;13.850;2023-12-07T01:05:29;1.10;99.90
19000;DHT22;9633;50.980;13.850;2023-12-07T01:07:02;1.10;99.90
19000;DHT22;9633;50.980;13.850;2023-12-07T01:08:35;1.10;99.90
19000;DHT22;9633;50.980;13.850;2023-12-07T01:10:08;1.20;99.90
19000;DHT22;9633;50.980;13.850;2023-12-07T01:11:41;1.10;99.90
19000;DHT22;9633;50.980;13.850;2023-12-07T01:13:14;1.10;99.90
19000;DHT22;9633;50.980;13.850;2023-12-07T01:14:46;1.10;99.90
19000;DHT22;9633;50.980;13.850;2023-12-07T01:16:19;1.10;99.90
19000;DHT22;9633;50.980;13.850;2023-12-07T01:17:53;1.10;99.90
19000;DHT22;9633;50.980;13.850;2023-12-07T01:19:26;1.20;99.90
19000;DHT22;9633;50.980;13.850;2023-12-07T01:20:59;1.20;99.90
19000;DHT22;9633;50.980;13.850;2023-12-07T01:22:32;1.20;99.90
19000;DHT22;9633;50.980;13.850;2023-12-07T01:24:05;1.20;99.90
19000;DHT22;9633;50.980;13.850;2023-12-07T01:25:47;1.10;99.90
19000;DHT22;9633;50.980;13.850;2023-12-07T01:27:19;1.10;99.90
19000;DHT22;9633;50.980;13.850;2023-12-07T01:28:52;1.10;99.90
19000;DHT22;9633;50.980;13.850;2023-12-07T01:30:25;1.10;99.90
19000;DHT22;9633;50.980;13.850;2023-12-07T01:31:58;1.10;99.90
19000;DHT22;9633;50.980;13.850;2023-12-07T01:33:31;1.10;99.90
19000;DHT22;9633;50.980;13.850;2023-12-07T01:35:06;1.10;99.90
19000;DHT22;9633;50.980;13.850;2023-12-07T01:36:38;1.10;99.90
19000;DHT22;9633;50.980;13.850;2023-12-07T01:38:12;1.10;99.90
19000;DHT22;9633;50.980;13.850;2023-12-07T01:39:44;1.10;99.90
19000;DHT22;9633;50.980;13.850;2023-12-07T01:41:17;1.10;99.90
19000;DHT22;9633;50.980;13.850;2023-12-07T01:42:51;1.20;99.90
19000;DHT22;9633;50.980;13.850;2023-12-07T01:44:25;1.10;99.90
19000;DHT22;9633;50.980;13.850;2023-12-07T01:45:59;1.10;99.90
19000;DHT22;9633;50.980;13.850;2023-12-07T01:47:35;1.20;99.90
19000;DHT22;9633;50.980;13.850;2023-12-07T01:49:09;1.10;99.90
19000;DHT22;9633;50.980;13.850;2023-12-07T01:50:42;1.10;99.90
19000;DHT22;9633;50.980;13.850;2023-12-07T01:52:16;1.30;99.90
19000;DHT22;9633;50.980;13.850;2023-12-07T01:53:49;1.30;99.90
19000;DHT22;9633;50.980;13.850;2023-12-07T01:55:23;1.20;99.90
19000;DHT22;9633;50.980;13.850;2023-12-07T01:56:56;1.20;99.90
19000;DHT22;9633;50.980;13.850;2023-12-07T01:58:30;1.20;99.90
19000;DHT22;9633;50.980;13.850;2023-12-07T02:00:03;1.10;99.90
19000;DHT22;9633;50.980;13.850;2023-12-07T02:01:37;1.10;99.90
19000;DHT22;9633;50.980;13.850;2023-12-07T02:03:11;1.10;99.90
19000;DHT22;9633;50.980;13.850;2023-12-07T02:04:46;1.10;99.90
19000;DHT22;9633;50.980;13.850;2023-12-07T02:06:19;1.10;99.90
19000;DHT22;9633;50.980;13.850;2023-12-07T02:07:52;1.10;99.90
19000;DHT22;9633;50.980;13.850;2023-12-07T02:09:25;1.10;99.90
19000;DHT22;9633;50.980;13.850;2023-12-07T02:10:58;1.10;99.90
19000;DHT22;9633;50.980;13.850;2023-12-07T02:12:31;1.10;99.90
19000;DHT22;9633;50.980;13.850;2023-12-07T02:14:03;1.10;99.90
19000;DHT22;9633;50.980;13.850;2023-12-07T02:15:36;1.10;99.90
19000;DHT22;9633;50.980;13.850;2023-12-07T02:17:15;1.10;99.90
19000;DHT22;9633;50.980;13.850;2023-12-07T02:18:52;1.10;99.90
19000;DHT22;9633;50.980;13.850;2023-12-07T02:20:32;1.10;99.90
19000;DHT22;9633;50.980;13.850;2023-12-07T02:22:12;1.10;99.90
19000;DHT22;9633;50.980;13.850;2023-12-07T02:23:47;1.10;99.90
19000;DHT22;9633;50.980;13.850;2023-12-07T02:25:28;1.10;99.90
19000;DHT22;9633;50.980;13.850;2023-12-07T02:27:03;1.20;99.90
19000;DHT22;9633;50.980;13.850;2023-12-07T02:28:36;1.20;99.90
19000;DHT22;9633;50.980;13.850;2023-12-07T02:30:10;1.20;99.90
19000;DHT22;9633;50.980;13.850;2023-12-07T02:31:43;1.20;99.90
19000;DHT22;9633;50.980;13.850;2023-12-07T02:33:15;1.20;99.90
19000;DHT22;9633;50.980;13.850;2023-12-07T02:34:49;1.20;99.90
19000;DHT22;9633;50.980;13.850;2023-12-07T02:36:24;1.20;99.90
19000;DHT22;9633;50.980;13.850;2023-12-07T02:38:00;1.20;99.90
19000;DHT22;9633;50.980;13.850;2023-12-07T02:39:33;1.20;99.90
19000;DHT22;9633;50.980;13.850;2023-12-07T02:41:07;1.20;99.90
19000;DHT22;9633;50.980;13.850;2023-12-07T02:42:41;1.30;99.90
19000;DHT22;9633;50.980;13.850;2023-12-07T02:44:15;1.30;99.90
19000;DHT22;9633;50.980;13.850;2023-12-07T02:45:48;1.30;99.90
19000;DHT22;9633;50.980;13.850;2023-12-07T02:47:21;1.20;99.90
19000;DHT22;9633;50.980;13.850;2023-12-07T02:48:54;1.20;99.90
19000;DHT22;9633;50.980;13.850;2023-12-07T02:50:27;1.20;99.90
19000;DHT22;9633;50.980;13.850;2023-12-07T02:51:59;1.30;99.90
19000;DHT22;9633;50.980;13.850;2023-12-07T02:53:33;1.30;99.90
19000;DHT22;9633;50.980;13.850;2023-12-07T02:55:06;1.30;99.90
19000;DHT22;9633;50.980;13.850;2023-12-07T02:56:41;1.30;99.90
19000;DHT22;9633;50.980;13.850;2023-12-07T02:58:14;1.30;99.90
19000;DHT22;9633;50.980;13.850;2023-12-07T02:59:48;1.20;99.90
19000;DHT22;9633;50.980;13.850;2023-12-07T03:01:20;1.20;99.90
19000;DHT22;9633;50.980;13.850;2023-12-07T03:02:53;1.30;99.90
19000;DHT22;9633;50.980;13.850;2023-12-07T03:04:26;1.30;99.90
19000;DHT22;9633;50.980;13.850;2023-12-07T03:05:59;1.30;99.90
19000;DHT22;9633;50.980;13.850;2023-12-07T03:07:31;1.30;99.90
19000;DHT22;9633;50.980;13.850;2023-12-07T03:09:04;1.30;99.90
19000;DHT22;9633;50.980;13.850;2023-12-07T03:10:37;1.30;99.90
19000;DHT22;9633;50.980;13.850;2023-12-07T03:12:10;1.30;99.90
19000;DHT22;9633;50.980;13.850;2023-12-07T03:13:44;1.30;99.90
19000;DHT22;9633;50.980;13.850;2023-12-07T03:15:17;1.30;99.90
19000;DHT22;9633;50.980;13.850;2023-12-07T03:16:49;1.30;99.90
19000;DHT22;9633;50.980;13.850;2023-12-07T03:18:23;1.30;99.90
19000;DHT22;9633;50.980;13.850;2023-12-07T03:19:56;1.30;99.90
19000;DHT22;9633;50.980;13.850;2023-12-07T03:21:30;1.30;99.90
19000;DHT22;9633;50.980;13.850;2023-12-07T03:23:02;1.30;99.90
19000;DHT22;9633;50.980;13.850;2023-12-07T03:24:36;1.30;99.90
19000;DHT22;9633;50.980;13.850;2023-12-07T03:26:08;1.30;99.90
19000;DHT22;9633;50.980;13.850;2023-12-07T03:27:41;1.30;99.90
19000;DHT22;9633;50.980;13.850;2023-12-07T03:29:15;1.30;99.90
19000;DHT22;9633;50.980;13.850;2023-12-07T03:30:48;1.30;99.90
19000;DHT22;9633;50.980;13.850;2023-12-07T03:32:21;1.30;99.90
19000;DHT22;9633;50.980;13.850;2023-12-07T03:33:54;1.30;99.90
19000;DHT22;9633;50.980;13.850;2023-12-07T03:35:27;1.30;99.90
19000;DHT22;9633;50.980;13.850;2023-12-07T03:37:00;1.40;99.90
19000;DHT22;9633;50.980;13.850;2023-12-07T03:38:32;1.30;99.90
19000;DHT22;9633;50.980;13.850;2023-12-07T03:40:06;1.30;99.90
19000;DHT22;9633;50.980;13.850;2023-12-07T03:41:41;1.30;99.90
19000;DHT22;9633;50.980;13.850;2023-12-07T03:43:13;1.40;99.90
19000;DHT22;9633;50.980;13.850;2023-12-07T03:44:48;1.40;99.90
19000;DHT22;9633;50.980;13.850;2023-12-07T03:46:20;1.40;99.90
19000;DHT22;9633;50.980;13.850;2023-12-07T03:47:53;1.40;99.90
19000;DHT22;9633;50.980;13.850;2023-12-07T03:49:25;1.40;99.90
19000;DHT22;9633;50.980;13.850;2023-12-07T03:50:59;1.30;99.90
19000;DHT22;9633;50.980;13.850;2023-12-07T03:52:31;1.40;99.90
19000;DHT22;9633;50.980;13.850;2023-12-07T03:54:04;1.40;99.90
19000;DHT22;9633;50.980;13.850;2023-12-07T03:55:37;1.30;99.90
19000;DHT22;9633;50.980;13.850;2023-12-07T03:57:12;1.40;99.90
19000;DHT22;9633;50.980;13.850;2023-12-07T03:58:45;1.30;99.90
19000;DHT22;9633;50.980;13.850;2023-12-07T04:00:19;1.40;99.90
19000;DHT22;9633;50.980;13.850;2023-12-07T04:01:53;1.40;99.90
19000;DHT22;9633;50.980;13.850;2023-12-07T04:03:25;1.50;99.90
19000;DHT22;9633;50.980;13.850;2023-12-07T04:04:58;1.50;99.90
19000;DHT22;9633;50.980;13.850;2023-12-07T04:06:33;1.50;99.90
19000;DHT22;9633;50.980;13.850;2023-12-07T04:08:07;1.50;99.90
19000;DHT22;9633;50.980;13.850;2023-12-07T04:09:39;1.50;99.90
19000;DHT22;9633;50.980;13.850;2023-12-07T04:11:12;1.40;99.90
19000;DHT22;9633;50.980;13.850;2023-12-07T04:12:44;1.50;99.90
19000;DHT22;9633;50.980;13.850;2023-12-07T04:14:17;1.40;99.90
19000;DHT22;9633;50.980;13.850;2023-12-07T04:15:51;1.40;99.90
19000;DHT22;9633;50.980;13.850;2023-12-07T04:17:24;1.30;99.90
19000;DHT22;9633;50.980;13.850;2023-12-07T04:18:56;1.40;99.90
19000;DHT22;9633;50.980;13.850;2023-12-07T04:20:30;1.40;99.90
19000;DHT22;9633;50.980;13.850;2023-12-07T04:22:02;1.40;99.90
19000;DHT22;9633;50.980;13.850;2023-12-07T04:23:35;1.30;99.90
19000;DHT22;9633;50.980;13.850;2023-12-07T04:25:08;1.30;99.90
19000;DHT22;9633;50.980;13.850;2023-12-07T04:26:41;1.30;99.90
19000;DHT22;9633;50.980;13.850;2023-12-07T04:28:13;1.30;99.90
19000;DHT22;9633;50.980;13.850;2023-12-07T04:29:47;1.30;99.90
19000;DHT22;9633;50.980;13.850;2023-12-07T04:31:21;1.30;99.90
19000;DHT22;9633;50.980;13.850;2023-12-07T04:32:54;1.30;99.90
19000;DHT22;9633;50.980;13.850;2023-12-07T04:34:27;1.30;99.90
19000;DHT22;9633;50.980;13.850;2023-12-07T04:36:02;1.30;99.90
19000;DHT22;9633;50.980;13.850;2023-12-07T04:37:36;1.30;99.90
19000;DHT22;9633;50.980;13.850;2023-12-07T04:39:09;1.40;99.90
19000;DHT22;9633;50.980;13.850;2023-12-07T04:40:43;1.40;99.90
19000;DHT22;9633;50.980;13.850;2023-12-07T04:42:15;1.40;99.90
19000;DHT22;9633;50.980;13.850;2023-12-07T04:43:49;1.40;99.90
19000;DHT22;9633;50.980;13.850;2023-12-07T04:45:22;1.40;99.90
19000;DHT22;9633;50.980;13.850;2023-12-07T04:46:55;1.40;99.90
19000;DHT22;9633;50.980;13.850;2023-12-07T04:48:29;1.40;99.90
19000;DHT22;9633;50.980;13.850;2023-12-07T04:50:01;1.50;99.90
19000;DHT22;9633;50.980;13.850;2023-12-07T04:51:34;1.40;99.90
19000;DHT22;9633;50.980;13.850;2023-12-07T04:53:07;1.40;99.90
19000;DHT22;9633;50.980;13.850;2023-12-07T04:54:40;1.40;99.90
19000;DHT22;9633;50.980;13.850;2023-12-07T04:56:13;1.40;99.90
19000;DHT22;9633;50.980;13.850;2023-12-07T04:57:46;1.40;99.90
19000;DHT22;9633;50.980;13.850;2023-12-07T04:59:19;1.40;99.90
19000;DHT22;9633;50.980;13.850;2023-12-07T05:00:52;1.40;99.90
19000;DHT22;9633;50.980;13.850;2023-12-07T05:02:26;1.40;99.90
19000;DHT22;9633;50.980;13.850;2023-12-07T05:03:59;1.40;99.90
19000;DHT22;9633;50.980;13.850;2023-12-07T05:05:33;1.40;99.90
19000;DHT22;9633;50.980;13.850;2023-12-07T05:07:05;1.40;99.90
19000;DHT22;9633;50.980;13.850;2023-12-07T05:08:39;1.40;99.90
19000;DHT22;9633;50.980;13.850;2023-12-07T05:10:11;1.40;99.90
19000;DHT22;9633;50.980;13.850;2023-12-07T05:11:44;1.40;99.90
19000;DHT22;9633;50.980;13.850;2023-12-07T05:13:17;1.40;99.90
19000;DHT22;9633;50.980;13.850;2023-12-07T05:14:51;1.40;99.90
19000;DHT22;9633;50.980;13.850;2023-12-07T05:16:23;1.40;99.90
19000;DHT22;9633;50.980;13.850;2023-12-07T05:17:58;1.40;99.90
19000;DHT22;9633;50.980;13.850;2023-12-07T05:19:30;1.40;99.90
19000;DHT22;9633;50.980;13.850;2023-12-07T05:21:04;1.40;99.90
19000;DHT22;9633;50.980;13.850;2023-12-07T05:22:37;1.40;99.90
19000;DHT22;9633;50.980;13.850;2023-12-07T05:24:09;1.40;99.90
19000;DHT22;9633;50.980;13.850;2023-12-07T05:25:42;1.40;99.90
19000;DHT22;9633;50.980;13.850;2023-12-07T05:27:15;1.40;99.90
19000;DHT22;9633;50.980;13.850;2023-12-07T05:28:48;1.40;99.90
19000;DHT22;9633;50.980;13.850;2023-12-07T05:30:21;1.40;99.90
19000;DHT22;9633;50.980;13.850;2023-12-07T05:31:55;1.40;99.90
19000;DHT22;9633;50.980;13.850;2023-12-07T05:33:28;1.40;99.90
19000;DHT22;9633;50.980;13.850;2023-12-07T05:35:03;1.40;99.90
19000;DHT22;9633;50.980;13.850;2023-12-07T05:36:35;1.40;99.90
19000;DHT22;9633;50.980;13.850;2023-12-07T05:38:08;1.40;99.90
19000;DHT22;9633;50.980;13.850;2023-12-07T05:39:40;1.50;99.90
19000;DHT22;9633;50.980;13.850;2023-12-07T05:41:14;1.50;99.90
19000;DHT22;9633;50.980;13.850;2023-12-07T05:42:48;1.50;99.90
19000;DHT22;9633;50.980;13.850;2023-12-07T05:44:22;1.40;99.90
19000;DHT22;9633;50.980;13.850;2023-12-07T05:45:54;1.40;99.90
19000;DHT22;9633;50.980;13.850;2023-12-07T05:47:28;1.40;99.90
19000;DHT22;9633;50.980;13.850;2023-12-07T05:49:02;1.40;99.90
19000;DHT22;9633;50.980;13.850;2023-12-07T05:50:35;1.50;99.90
19000;DHT22;9633;50.980;13.850;2023-12-07T05:52:11;1.50;99.90
19000;DHT22;9633;50.980;13.850;2023-12-07T05:53:44;1.50;99.90
19000;DHT22;9633;50.980;13.850;2023-12-07T05:55:17;1.50;99.90
19000;DHT22;9633;50.980;13.850;2023-12-07T05:56:49;1.40;99.90
19000;DHT22;9633;50.980;13.850;2023-12-07T05:58:23;1.50;99.90
19000;DHT22;9633;50.980;13.850;2023-12-07T05:59:55;1.50;99.90
19000;DHT22;9633;50.980;13.850;2023-12-07T06:01:28;1.50;99.90
19000;DHT22;9633;50.980;13.850;2023-12-07T06:03:00;1.50;99.90
19000;DHT22;9633;50.980;13.850;2023-12-07T06:04:36;1.50;99.90
19000;DHT22;9633;50.980;13.850;2023-12-07T06:06:08;1.50;99.90
19000;DHT22;9633;50.980;13.850;2023-12-07T06:07:42;1.50;99.90
19000;DHT22;9633;50.980;13.850;2023-12-07T06:09:16;1.50;99.90
19000;DHT22;9633;50.980;13.850;2023-12-07T06:10:48;1.50;99.90
19000;DHT22;9633;50.980;13.850;2023-12-07T06:12:21;1.50;99.90
19000;DHT22;9633;50.980;13.850;2023-12-07T06:13:54;1.50;99.90
19000;DHT22;9633;50.980;13.850;2023-12-07T06:15:28;1.40;99.90
19000;DHT22;9633;50.980;13.850;2023-12-07T06:17:01;1.50;99.90
19000;DHT22;9633;50.980;13.850;2023-12-07T06:18:33;1.50;99.90
19000;DHT22;9633;50.980;13.850;2023-12-07T06:20:09;1.50;99.90
19000;DHT22;9633;50.980;13.850;2023-12-07T06:21:43;1.50;99.90
19000;DHT22;9633;50.980;13.850;2023-12-07T06:23:17;1.40;99.90
19000;DHT22;9633;50.980;13.850;2023-12-07T06:24:49;1.40;99.90
19000;DHT22;9633;50.980;13.850;2023-12-07T06:26:22;1.50;99.90
19000;DHT22;9633;50.980;13.850;2023-12-07T06:27:55;1.60;99.90
19000;DHT22;9633;50.980;13.850;2023-12-07T06:29:28;1.50;99.90
19000;DHT22;9633;50.980;13.850;2023-12-07T06:31:05;1.50;99.90
19000;DHT22;9633;50.980;13.850;2023-12-07T06:32:39;1.50;99.90
19000;DHT22;9633;50.980;13.850;2023-12-07T06:34:11;1.40;99.90
19000;DHT22;9633;50.980;13.850;2023-12-07T06:35:46;1.40;99.90
19000;DHT22;9633;50.980;13.850;2023-12-07T06:37:19;1.40;99.90
19000;DHT22;9633;50.980;13.850;2023-12-07T06:38:53;1.40;99.90
19000;DHT22;9633;50.980;13.850;2023-12-07T06:40:26;1.50;99.90
19000;DHT22;9633;50.980;13.850;2023-12-07T06:41:59;1.40;99.90
19000;DHT22;9633;50.980;13.850;2023-12-07T06:43:32;1.40;99.90
19000;DHT22;9633;50.980;13.850;2023-12-07T06:45:06;1.40;99.90
19000;DHT22;9633;50.980;13.850;2023-12-07T06:46:42;1.40;99.90
19000;DHT22;9633;50.980;13.850;2023-12-07T06:48:15;1.40;99.90
19000;DHT22;9633;50.980;13.850;2023-12-07T06:49:48;1.40;99.90
19000;DHT22;9633;50.980;13.850;2023-12-07T06:51:26;1.40;99.90
19000;DHT22;9633;50.980;13.850;2023-12-07T06:52:59;1.40;99.90
19000;DHT22;9633;50.980;13.850;2023-12-07T06:54:32;1.40;99.90
19000;DHT22;9633;50.980;13.850;2023-12-07T06:56:06;1.40;99.90
19000;DHT22;9633;50.980;13.850;2023-12-07T06:57:38;1.40;99.90
19000;DHT22;9633;50.980;13.850;2023-12-07T06:59:11;1.50;99.90
19000;DHT22;9633;50.980;13.850;2023-12-07T07:00:43;1.50;99.90
19000;DHT22;9633;50.980;13.850;2023-12-07T07:02:17;1.50;99.90
19000;DHT22;9633;50.980;13.850;2023-12-07T07:03:49;1.50;99.90
19000;DHT22;9633;50.980;13.850;2023-12-07T07:05:22;1.40;99.90
19000;DHT22;9633;50.980;13.850;2023-12-07T07:06:56;1.50;99.90
19000;DHT22;9633;50.980;13.850;2023-12-07T07:08:30;1.40;99.90
19000;DHT22;9633;50.980;13.850;2023-12-07T07:10:02;1.50;99.90
19000;DHT22;9633;50.980;13.850;2023-12-07T07:11:36;1.50;99.90
19000;DHT22;9633;50.980;13.850;2023-12-07T07:13:09;1.50;99.90
19000;DHT22;9633;50.980;13.850;2023-12-07T07:14:42;1.50;99.90
19000;DHT22;9633;50.980;13.850;2023-12-07T07:16:14;1.50;99.90
19000;DHT22;9633;50.980;13.850;2023-12-07T07:17:47;1.50;99.90
19000;DHT22;9633;50.980;13.850;2023-12-07T07:19:20;1.50;99.90
19000;DHT22;9633;50.980;13.850;2023-12-07T07:20:53;1.60;99.90
19000;DHT22;9633;50.980;13.850;2023-12-07T07:22:27;1.60;99.90
19000;DHT22;9633;50.980;13.850;2023-12-07T07:24:00;1.60;99.90
19000;DHT22;9633;50.980;13.850;2023-12-07T07:25:32;1.60;99.90
19000;DHT22;9633;50.980;13.850;2023-12-07T07:27:06;1.70;99.90
19000;DHT22;9633;50.980;13.850;2023-12-07T07:28:38;1.70;99.90
19000;DHT22;9633;50.980;13.850;2023-12-07T07:30:12;1.70;99.90
19000;DHT22;9633;50.980;13.850;2023-12-07T07:31:45;1.70;99.90
19000;DHT22;9633;50.980;13.850;2023-12-07T07:33:19;1.80;99.90
19000;DHT22;9633;50.980;13.850;2023-12-07T07:34:51;1.80;99.90
19000;DHT22;9633;50.980;13.850;2023-12-07T07:36:24;1.70;99.90
19000;DHT22;9633;50.980;13.850;2023-12-07T07:37:58;1.70;99.90
19000;DHT22;9633;50.980;13.850;2023-12-07T07:39:31;1.70;99.90
19000;DHT22;9633;50.980;13.850;2023-12-07T07:41:03;1.70;99.90
19000;DHT22;9633;50.980;13.850;2023-12-07T07:42:37;1.70;99.90
19000;DHT22;9633;50.980;13.850;2023-12-07T07:44:10;1.70;99.90
19000;DHT22;9633;50.980;13.850;2023-12-07T07:45:44;1.70;99.90
19000;DHT22;9633;50.980;13.850;2023-12-07T07:47:18;1.80;99.90
19000;DHT22;9633;50.980;13.850;2023-12-07T07:48:51;1.90;99.90
19000;DHT22;9633;50.980;13.850;2023-12-07T07:50:23;1.80;99.90
19000;DHT22;9633;50.980;13.850;2023-12-07T07:51:56;1.80;99.90
19000;DHT22;9633;50.980;13.850;2023-12-07T07:53:30;1.80;99.90
19000;DHT22;9633;50.980;13.850;2023-12-07T07:55:06;1.80;99.90
19000;DHT22;9633;50.980;13.850;2023-12-07T07:56:39;1.80;99.90
19000;DHT22;9633;50.980;13.850;2023-12-07T07:58:12;1.90;99.90
19000;DHT22;9633;50.980;13.850;2023-12-07T07:59:44;1.90;99.90
19000;DHT22;9633;50.980;13.850;2023-12-07T08:01:17;1.90;99.90
19000;DHT22;9633;50.980;13.850;2023-12-07T08:02:51;2.00;99.90
19000;DHT22;9633;50.980;13.850;2023-12-07T08:04:23;2.00;99.90
19000;DHT22;9633;50.980;13.850;2023-12-07T08:05:56;2.00;99.90
19000;DHT22;9633;50.980;13.850;2023-12-07T08:07:29;2.00;99.90
19000;DHT22;9633;50.980;13.850;2023-12-07T08:09:04;2.00;99.90
19000;DHT22;9633;50.980;13.850;2023-12-07T08:10:37;2.00;99.90
19000;DHT22;9633;50.980;13.850;2023-12-07T08:12:26;2.10;99.90
19000;DHT22;9633;50.980;13.850;2023-12-07T08:13:58;2.10;99.90
19000;DHT22;9633;50.980;13.850;2023-12-07T08:15:32;2.10;99.90
19000;DHT22;9633;50.980;13.850;2023-12-07T08:17:04;2.10;99.90
19000;DHT22;9633;50.980;13.850;2023-12-07T08:18:37;2.20;99.90
19000;DHT22;9633;50.980;13.850;2023-12-07T08:20:10;2.10;99.90
19000;DHT22;9633;50.980;13.850;2023-12-07T08:21:44;2.10;99.90
19000;DHT22;9633;50.980;13.850;2023-12-07T08:23:16;2.10;99.90
19000;DHT22;9633;50.980;13.850;2023-12-07T08:24:51;2.10;99.90
19000;DHT22;9633;50.980;13.850;2023-12-07T08:26:39;2.10;99.90
19000;DHT22;9633;50.980;13.850;2023-12-07T08:28:13;2.20;99.90
19000;DHT22;9633;50.980;13.850;2023-12-07T08:29:45;2.20;99.90
19000;DHT22;9633;50.980;13.850;2023-12-07T08:31:19;2.20;99.90
19000;DHT22;9633;50.980;13.850;2023-12-07T08:32:51;2.20;99.90
19000;DHT22;9633;50.980;13.850;2023-12-07T08:34:25;2.20;99.90
19000;DHT22;9633;50.980;13.850;2023-12-07T08:35:57;2.10;99.90
19000;DHT22;9633;50.980;13.850;2023-12-07T08:37:31;2.10;99.90
19000;DHT22;9633;50.980;13.850;2023-12-07T08:39:03;2.20;99.90
19000;DHT22;9633;50.980;13.850;2023-12-07T08:40:43;2.20;99.90
19000;DHT22;9633;50.980;13.850;2023-12-07T08:42:15;2.20;99.90
19000;DHT22;9633;50.980;13.850;2023-12-07T08:43:49;2.20;99.90
19000;DHT22;9633;50.980;13.850;2023-12-07T08:45:21;2.30;99.90
19000;DHT22;9633;50.980;13.850;2023-12-07T08:46:55;2.20;99.90
19000;DHT22;9633;50.980;13.850;2023-12-07T08:48:28;2.20;99.90
19000;DHT22;9633;50.980;13.850;2023-12-07T08:50:01;2.20;99.90
19000;DHT22;9633;50.980;13.850;2023-12-07T08:51:33;2.30;99.90
19000;DHT22;9633;50.980;13.850;2023-12-07T08:53:07;2.30;99.90
19000;DHT22;9633;50.980;13.850;2023-12-07T08:54:39;2.30;99.90
19000;DHT22;9633;50.980;13.850;2023-12-07T08:56:14;2.20;99.90
19000;DHT22;9633;50.980;13.850;2023-12-07T08:57:46;2.20;99.90
19000;DHT22;9633;50.980;13.850;2023-12-07T08:59:19;2.20;99.90
19000;DHT22;9633;50.980;13.850;2023-12-07T09:00:53;2.20;99.90
19000;DHT22;9633;50.980;13.850;2023-12-07T09:02:27;2.30;99.90
19000;DHT22;9633;50.980;13.850;2023-12-07T09:04:16;2.20;99.90
19000;DHT22;9633;50.980;13.850;2023-12-07T09:05:49;2.30;99.90
19000;DHT22;9633;50.980;13.850;2023-12-07T09:07:22;2.30;99.90
19000;DHT22;9633;50.980;13.850;2023-12-07T09:08:55;2.30;99.90
19000;DHT22;9633;50.980;13.850;2023-12-07T09:10:28;2.20;99.90
19000;DHT22;9633;50.980;13.850;2023-12-07T09:12:02;2.20;99.90
19000;DHT22;9633;50.980;13.850;2023-12-07T09:13:37;2.20;99.90
19000;DHT22;9633;50.980;13.850;2023-12-07T09:15:11;2.20;99.90
19000;DHT22;9633;50.980;13.850;2023-12-07T09:16:44;2.20;99.90
19000;DHT22;9633;50.980;13.850;2023-12-07T09:18:17;2.30;99.90
19000;DHT22;9633;50.980;13.850;2023-12-07T09:19:49;2.30;99.90
19000;DHT22;9633;50.980;13.850;2023-12-07T09:21:23;2.40;99.90
19000;DHT22;9633;50.980;13.850;2023-12-07T09:22:56;2.50;99.90
19000;DHT22;9633;50.980;13.850;2023-12-07T09:24:30;2.50;99.90
19000;DHT22;9633;50.980;13.850;2023-12-07T09:26:02;2.50;99.90
19000;DHT22;9633;50.980;13.850;2023-12-07T09:27:37;2.50;99.90
19000;DHT22;9633;50.980;13.850;2023-12-07T09:29:09;2.60;99.90
19000;DHT22;9633;50.980;13.850;2023-12-07T09:30:43;2.60;99.90
19000;DHT22;9633;50.980;13.850;2023-12-07T09:32:15;2.60;99.90
19000;DHT22;9633;50.980;13.850;2023-12-07T09:33:55;2.70;99.90
19000;DHT22;9633;50.980;13.850;2023-12-07T09:35:42;2.70;99.90
19000;DHT22;9633;50.980;13.850;2023-12-07T09:37:14;2.60;99.90
19000;DHT22;9633;50.980;13.850;2023-12-07T09:38:47;2.60;99.90
19000;DHT22;9633;50.980;13.850;2023-12-07T09:40:20;2.60;99.90
19000;DHT22;9633;50.980;13.850;2023-12-07T09:41:54;2.60;99.90
19000;DHT22;9633;50.980;13.850;2023-12-07T09:43:28;2.60;99.90
19000;DHT22;9633;50.980;13.850;2023-12-07T09:45:01;2.60;99.90
19000;DHT22;9633;50.980;13.850;2023-12-07T09:46:34;2.60;99.90
19000;DHT22;9633;50.980;13.850;2023-12-07T09:48:07;2.70;99.90
19000;DHT22;9633;50.980;13.850;2023-12-07T09:49:40;2.60;99.90
19000;DHT22;9633;50.980;13.850;2023-12-07T09:51:15;2.70;99.90
19000;DHT22;9633;50.980;13.850;2023-12-07T09:52:48;2.70;99.90
19000;DHT22;9633;50.980;13.850;2023-12-07T09:54:36;2.70;99.90
19000;DHT22;9633;50.980;13.850;2023-12-07T09:56:12;2.70;99.90
19000;DHT22;9633;50.980;13.850;2023-12-07T09:57:45;2.70;99.90
19000;DHT22;9633;50.980;13.850;2023-12-07T09:59:20;2.70;99.90